Pereiaslavskyi — UUBF2 — position and weather

sailwx.info

Track history (hours):
 
Tides and Currents Weather Stations Pressure Air Temp Water Temp Dewpoint Dewpoint Depression Visibility Wind Speed Wind Dir Waves Ship Positions

Pereiaslavskyi

Last reported at 2017-Oct-18 14:58 UTC. Time now 2017-Oct-20 01:12 UTC.
Position N 46°32' E 032°10'.

Length 28 m; draft 1.7 m.

Type: Tug. MMSI: 272743000.

Date/timePositionNaut miles runAvg speedWind from/ knotsBaromVisibWave heightAir tempDewpointWater temp
2017-Oct-18 14:58N 46°32' E 032°10'4 4.4
2017-Oct-18 14:00N 46°32' E 032°04'2 4.6
2017-Oct-18 13:30N 46°32' E 032°01'2 4.5
2017-Oct-18 13:00N 46°33' E 031°58'2 4.6
2017-Oct-18 12:30N 46°34' E 031°55'2 4.6
2017-Oct-18 12:00N 46°35' E 031°52'13 4.2
2017-Oct-18 08:52N 46°35' E 031°33'9 3.8
2017-Oct-18 06:22N 46°34' E 031°19'2 4.1
2017-Oct-18 05:56N 46°34' E 031°16'0 0.3
2017-Oct-18 05:28N 46°34' E 031°16'0 0.1
2017-Oct-18 04:51N 46°34' E 031°16'0 0.0
2017-Oct-18 00:46N 46°34' E 031°16'0 0.1
2017-Oct-18 00:27N 46°34' E 031°16'0 0.1
2017-Oct-17 23:59N 46°34' E 031°16'0 0.0
2017-Oct-16 21:47N 46°34' E 031°16'0 0.0
2017-Oct-16 20:49N 46°34' E 031°16'1 1.2
2017-Oct-16 20:15N 46°34' E 031°17'0 0.1
2017-Oct-16 20:01N 46°34' E 031°17'1 0.8
2017-Oct-16 19:21N 46°34' E 031°16'17 4.1
2017-Oct-16 15:06N 46°35' E 031°42'1 4.1
2017-Oct-16 14:56N 46°35' E 031°43'2 4.1
2017-Oct-16 14:27N 46°36' E 031°46'4 3.9
2017-Oct-16 13:31N 46°36' E 031°51'2 4.0
2017-Oct-16 13:00N 46°37' E 031°53'2 4.2
2017-Oct-16 12:30N 46°39' E 031°56'2 4.2
2017-Oct-16 12:00N 46°41' E 031°56'2 4.5
2017-Oct-16 11:31N 46°43' E 031°56'2 4.3
2017-Oct-16 11:00N 46°45' E 031°54'2 4.5
2017-Oct-16 10:31N 46°47' E 031°53'2 4.3
2017-Oct-16 10:01N 46°49' E 031°54'2 4.7
2017-Oct-16 09:31N 46°51' E 031°57'2 4.8
2017-Oct-16 09:01N 46°52' E 031°59'2 4.8
2017-Oct-16 08:31N 46°54' E 032°01'2 3.8
2017-Oct-16 08:01N 46°56' E 031°60'1 1.1
2017-Oct-16 07:31N 46°57' E 031°59'0 0.0
2017-Oct-16 07:00N 46°57' E 031°59'0 0.0
2017-Oct-16 06:31N 46°57' E 031°59'0 0.0
2017-Oct-16 06:01N 46°57' E 031°59'0 0.0
2017-Oct-16 05:31N 46°57' E 031°59'0 0.0
2017-Oct-16 05:01N 46°57' E 031°59'0 0.0
2017-Oct-16 04:30N 46°57' E 031°59'0 0.0
2017-Oct-16 04:01N 46°57' E 031°59'0 0.0
2017-Oct-16 03:31N 46°57' E 031°59'0 0.0
2017-Oct-16 03:01N 46°57' E 031°59'0 0.0
2017-Oct-16 02:31N 46°57' E 031°59'0 0.0
2017-Oct-16 02:00N 46°57' E 031°59'0 0.0
2017-Oct-16 01:30N 46°57' E 031°59'0 0.5
2017-Oct-16 01:01N 46°57' E 031°59'0 0.7
2017-Oct-16 00:31N 46°56' E 031°59'0 0.2
2017-Oct-16 00:00N 46°56' E 031°59'0 1.0
2017-Oct-15 23:30N 46°57' E 031°59'0 0.5
2017-Oct-15 23:01N 46°56' E 031°59'0 0.2
2017-Oct-15 22:30N 46°56' E 031°59'0 0.1
2017-Oct-15 22:01N 46°56' E 031°59'0 0.2
2017-Oct-15 21:31N 46°57' E 031°59'0 0.4
2017-Oct-15 21:01N 46°57' E 031°59'0 0.0
2017-Oct-15 20:31N 46°57' E 031°59'0 0.0
2017-Oct-15 20:00N 46°57' E 031°59'0 0.0
2017-Oct-15 19:31N 46°57' E 031°59'0 0.0
2017-Oct-15 19:00N 46°57' E 031°59'0 0.0
2017-Oct-15 18:30N 46°57' E 031°59'0 0.0
2017-Oct-15 18:01N 46°57' E 031°59'0 0.0
2017-Oct-15 17:30N 46°57' E 031°59'0 0.0
2017-Oct-15 17:01N 46°57' E 031°59'0 0.0
2017-Oct-15 16:30N 46°57' E 031°59'0 0.0
2017-Oct-15 16:01N 46°57' E 031°59'0 0.0
2017-Oct-15 15:31N 46°57' E 031°59'0 0.0
2017-Oct-15 15:01N 46°57' E 031°59'0 0.0
2017-Oct-15 14:00N 46°57' E 031°59'0 0.0
2017-Oct-15 13:31N 46°57' E 031°59'0 0.0
2017-Oct-15 13:00N 46°57' E 031°59'0 0.0
2017-Oct-15 12:30N 46°57' E 031°59'0 0.0
2017-Oct-15 12:01N 46°57' E 031°59'0 0.0
2017-Oct-15 11:30N 46°57' E 031°59'0 0.0
2017-Oct-15 11:00N 46°57' E 031°59'0 0.0
2017-Oct-15 10:30N 46°57' E 031°59'0 0.0
2017-Oct-15 10:00N 46°57' E 031°59'0 0.0
2017-Oct-15 09:31N 46°57' E 031°59'0 0.4
2017-Oct-15 09:01N 46°56' E 031°59'0 0.1
2017-Oct-15 08:31N 46°56' E 031°59'0 0.1
2017-Oct-15 08:00N 46°56' E 031°59'0 0.3
2017-Oct-15 07:31N 46°56' E 031°59'0 0.7
2017-Oct-15 07:00N 46°57' E 031°59'0 0.0
2017-Oct-15 06:31N 46°57' E 031°59'0 0.5
2017-Oct-15 06:01N 46°57' E 031°59'0 0.5
2017-Oct-15 05:31N 46°57' E 031°59'0 0.0
2017-Oct-15 05:00N 46°57' E 031°59'0 0.0
2017-Oct-15 04:31N 46°57' E 031°59'0 0.1
2017-Oct-15 04:01N 46°57' E 031°59'0 0.1
2017-Oct-15 03:30N 46°57' E 031°59'0 0.2
2017-Oct-15 03:00N 46°57' E 031°59'0 0.0
2017-Oct-15 02:31N 46°57' E 031°59'0 0.0
2017-Oct-15 02:01N 46°57' E 031°59'0 0.0
2017-Oct-15 01:30N 46°57' E 031°59'0 0.0
2017-Oct-15 01:00N 46°57' E 031°59'0 0.0
2017-Oct-15 00:31N 46°57' E 031°59'0 0.3
2017-Oct-15 00:01N 46°56' E 031°59'0 0.0
2017-Oct-14 23:31N 46°56' E 031°59'0 0.0
2017-Oct-14 23:01N 46°56' E 031°59'0 0.4
2017-Oct-14 22:31N 46°57' E 031°59'0 0.0
2017-Oct-14 22:01N 46°57' E 031°59'0 0.0
2017-Oct-14 21:30N 46°57' E 031°59'0 0.0
2017-Oct-14 21:01N 46°57' E 031°59'0 0.0
2017-Oct-14 20:30N 46°57' E 031°59'0 0.0
2017-Oct-14 20:01N 46°57' E 031°59'0 0.3
2017-Oct-14 19:31N 46°56' E 031°59'0 0.0
2017-Oct-14 19:01N 46°56' E 031°59'0 0.0
2017-Oct-14 18:31N 46°56' E 031°59'0 0.0
2017-Oct-14 18:01N 46°56' E 031°59'0 0.0
2017-Oct-14 17:31N 46°56' E 031°59'0 0.0
2017-Oct-14 17:01N 46°56' E 031°59'0 0.8
2017-Oct-14 16:30N 46°56' E 031°59'0 0.6
2017-Oct-14 16:00N 46°56' E 031°59'0 0.5
2017-Oct-14 15:30N 46°57' E 031°59'0 0.0
2017-Oct-14 15:01N 46°57' E 031°59'0 0.1
2017-Oct-14 14:31N 46°57' E 031°59'0 0.6
2017-Oct-14 14:00N 46°56' E 031°59'0 0.6
2017-Oct-14 13:31N 46°57' E 031°59'0 0.3
2017-Oct-14 13:00N 46°56' E 031°59'0 0.7
2017-Oct-14 12:31N 46°56' E 031°59'0 0.6
2017-Oct-14 12:01N 46°56' E 031°59'0 0.0
2017-Oct-14 11:30N 46°56' E 031°59'0 0.1
2017-Oct-14 11:01N 46°56' E 031°59'0 0.1
2017-Oct-14 10:30N 46°56' E 031°59'0 0.4
2017-Oct-14 10:00N 46°57' E 031°59'0 0.0
2017-Oct-14 09:30N 46°57' E 031°59'0 0.0
2017-Oct-14 09:01N 46°57' E 031°59'0 0.0
2017-Oct-14 08:31N 46°57' E 031°59'0 0.0
2017-Oct-14 08:00N 46°57' E 031°59'0 0.0
2017-Oct-14 07:31N 46°57' E 031°59'0 0.0
2017-Oct-14 07:01N 46°57' E 031°59'0 0.0
2017-Oct-14 06:30N 46°57' E 031°59'0 0.0
2017-Oct-14 06:00N 46°57' E 031°59'0 0.0
2017-Oct-14 05:30N 46°57' E 031°59'0 0.6
2017-Oct-14 05:01N 46°56' E 031°59'0 0.4
2017-Oct-14 04:31N 46°56' E 031°59'0 0.4
2017-Oct-14 04:01N 46°56' E 031°59'0 0.5
2017-Oct-14 03:31N 46°57' E 031°59'0 0.0
2017-Oct-14 03:01N 46°57' E 031°59'0 0.5
2017-Oct-14 02:30N 46°56' E 031°59'0 0.5
2017-Oct-14 02:01N 46°56' E 031°59'0 0.0
2017-Oct-14 01:30N 46°56' E 031°59'0 0.0
2017-Oct-14 01:00N 46°56' E 031°59'0 0.1
2017-Oct-14 00:31N 46°56' E 031°59'0 0.0
2017-Oct-14 00:00N 46°56' E 031°59'0 0.0
2017-Oct-13 23:31N 46°56' E 031°59'0 0.9
2017-Oct-13 23:01N 46°57' E 031°59'0 0.0
2017-Oct-13 22:31N 46°57' E 031°59'0 0.0
2017-Oct-13 22:01N 46°57' E 031°59'0 0.0
2017-Oct-13 21:31N 46°57' E 031°59'0 0.0
2017-Oct-13 21:00N 46°57' E 031°59'0 0.0
2017-Oct-13 20:31N 46°57' E 031°59'0 0.0
2017-Oct-13 20:00N 46°57' E 031°59'0 0.0
2017-Oct-13 19:31N 46°57' E 031°59'0 0.0
2017-Oct-13 19:00N 46°57' E 031°59'0 0.0
2017-Oct-13 18:31N 46°57' E 031°59'0 0.4
2017-Oct-13 18:00N 46°57' E 031°59'0 0.7
2017-Oct-13 17:30N 46°56' E 031°59'0 0.5
2017-Oct-13 17:01N 46°56' E 031°59'0 0.8
2017-Oct-13 16:30N 46°56' E 031°59'0 0.7
2017-Oct-13 16:00N 46°56' E 031°59'0 0.0
2017-Oct-13 15:30N 46°56' E 031°59'0 0.7
2017-Oct-13 15:00N 46°56' E 031°59'0 0.7
2017-Oct-13 14:31N 46°57' E 031°59'1 1.6
2017-Oct-13 14:00N 46°56' E 031°59'0 0.1
2017-Oct-13 13:31N 46°56' E 031°59'0 0.8
2017-Oct-13 13:00N 46°56' E 031°59'0 0.1
2017-Oct-13 12:31N 46°57' E 031°59'0 0.1
2017-Oct-13 12:00N 46°57' E 031°59'0 0.3
2017-Oct-13 11:31N 46°56' E 031°59'0 0.7
2017-Oct-13 11:01N 46°56' E 031°59'0 0.9
2017-Oct-13 10:30N 46°57' E 031°59'1 1.1
2017-Oct-13 10:01N 46°56' E 031°59'0 0.7
2017-Oct-13 09:30N 46°57' E 031°59'0 0.1
2017-Oct-13 09:01N 46°57' E 031°59'0 0.0
2017-Oct-13 08:31N 46°57' E 031°59'0 0.4
2017-Oct-13 08:00N 46°57' E 031°59'0 0.0
2017-Oct-13 07:30N 46°57' E 031°59'0 0.0
2017-Oct-13 07:01N 46°57' E 031°59'0 0.9
2017-Oct-13 06:30N 46°56' E 031°59'0 0.8
2017-Oct-13 06:00N 46°57' E 031°59'0 0.0
2017-Oct-13 05:31N 46°57' E 031°59'0 0.0
2017-Oct-13 05:00N 46°57' E 031°59'0 0.0
2017-Oct-13 04:31N 46°57' E 031°59'0 0.0
2017-Oct-13 04:01N 46°57' E 031°59'0 0.0
2017-Oct-13 03:31N 46°57' E 031°59'0 0.0
2017-Oct-13 03:01N 46°57' E 031°59'0 0.0
2017-Oct-13 02:31N 46°57' E 031°59'0 0.0
2017-Oct-13 02:01N 46°57' E 031°59'0 0.0
2017-Oct-13 01:30N 46°57' E 031°59'0 0.1
2017-Oct-13 01:00N 46°57' E 031°59'0 0.3
2017-Oct-13 00:31N 46°56' E 031°59'0 0.3
2017-Oct-13 00:01N 46°57' E 031°59'0 0.0
2017-Oct-12 23:30N 46°57' E 031°59'0 0.0
2017-Oct-12 23:01N 46°57' E 031°59'0 0.4
2017-Oct-12 22:31N 46°57' E 031°59'0 0.3
2017-Oct-12 22:01N 46°56' E 031°59'0 0.4
2017-Oct-12 21:31N 46°56' E 031°59'0 0.7
2017-Oct-12 21:00N 46°57' E 031°59'0 0.3
2017-Oct-12 20:30N 46°56' E 031°59'1 2.2
2017-Oct-12 20:01N 46°56' E 031°58'1 2.8
2017-Oct-12 19:31N 46°56' E 031°56'1 2.8
2017-Oct-12 19:01N 46°57' E 031°55'2 3.0
2017-Oct-12 18:31N 46°58' E 031°57'2 3.1
2017-Oct-12 18:01N 46°59' E 031°58'1 2.4
2017-Oct-12 17:30N 47°00' E 031°58'1 2.8
2017-Oct-12 17:00N 47°00' E 031°56'  
Track history (hours):
 
Tides and Currents Weather Stations Pressure Air Temp Water Temp Dewpoint Dewpoint Depression Visibility Wind Speed Wind Dir Waves Ship Positions

Pereiaslavskyi

Last reported at 2017-Oct-18 14:58 UTC. Time now 2017-Oct-20 01:12 UTC.
Position N 46°32' E 032°10'.

Length 28 m; draft 1.7 m.

Type: Tug. MMSI: 272743000.

Date/timePositionNaut miles runAvg speedWind from/ knotsBaromVisibWave heightAir tempDewpointWater temp
2017-Oct-18 14:58N 46°32' E 032°10'4 4.4
2017-Oct-18 14:00N 46°32' E 032°04'2 4.6
2017-Oct-18 13:30N 46°32' E 032°01'2 4.5
2017-Oct-18 13:00N 46°33' E 031°58'2 4.6
2017-Oct-18 12:30N 46°34' E 031°55'2 4.6
2017-Oct-18 12:00N 46°35' E 031°52'13 4.2
2017-Oct-18 08:52N 46°35' E 031°33'9 3.8
2017-Oct-18 06:22N 46°34' E 031°19'2 4.1
2017-Oct-18 05:56N 46°34' E 031°16'0 0.3
2017-Oct-18 05:28N 46°34' E 031°16'0 0.1
2017-Oct-18 04:51N 46°34' E 031°16'0 0.0
2017-Oct-18 00:46N 46°34' E 031°16'0 0.1
2017-Oct-18 00:27N 46°34' E 031°16'0 0.1
2017-Oct-17 23:59N 46°34' E 031°16'0 0.0
2017-Oct-16 21:47N 46°34' E 031°16'0 0.0
2017-Oct-16 20:49N 46°34' E 031°16'1 1.2
2017-Oct-16 20:15N 46°34' E 031°17'0 0.1
2017-Oct-16 20:01N 46°34' E 031°17'1 0.8
2017-Oct-16 19:21N 46°34' E 031°16'17 4.1
2017-Oct-16 15:06N 46°35' E 031°42'1 4.1
2017-Oct-16 14:56N 46°35' E 031°43'2 4.1
2017-Oct-16 14:27N 46°36' E 031°46'4 3.9
2017-Oct-16 13:31N 46°36' E 031°51'2 4.0
2017-Oct-16 13:00N 46°37' E 031°53'2 4.2
2017-Oct-16 12:30N 46°39' E 031°56'2 4.2
2017-Oct-16 12:00N 46°41' E 031°56'2 4.5
2017-Oct-16 11:31N 46°43' E 031°56'2 4.3
2017-Oct-16 11:00N 46°45' E 031°54'2 4.5
2017-Oct-16 10:31N 46°47' E 031°53'2 4.3
2017-Oct-16 10:01N 46°49' E 031°54'2 4.7
2017-Oct-16 09:31N 46°51' E 031°57'2 4.8
2017-Oct-16 09:01N 46°52' E 031°59'2 4.8
2017-Oct-16 08:31N 46°54' E 032°01'2 3.8
2017-Oct-16 08:01N 46°56' E 031°60'1 1.1
2017-Oct-16 07:31N 46°57' E 031°59'0 0.0
2017-Oct-16 07:00N 46°57' E 031°59'0 0.0
2017-Oct-16 06:31N 46°57' E 031°59'0 0.0
2017-Oct-16 06:01N 46°57' E 031°59'0 0.0
2017-Oct-16 05:31N 46°57' E 031°59'0 0.0
2017-Oct-16 05:01N 46°57' E 031°59'0 0.0
2017-Oct-16 04:30N 46°57' E 031°59'0 0.0
2017-Oct-16 04:01N 46°57' E 031°59'0 0.0
2017-Oct-16 03:31N 46°57' E 031°59'0 0.0
2017-Oct-16 03:01N 46°57' E 031°59'0 0.0
2017-Oct-16 02:31N 46°57' E 031°59'0 0.0
2017-Oct-16 02:00N 46°57' E 031°59'0 0.0
2017-Oct-16 01:30N 46°57' E 031°59'0 0.5
2017-Oct-16 01:01N 46°57' E 031°59'0 0.7
2017-Oct-16 00:31N 46°56' E 031°59'0 0.2
2017-Oct-16 00:00N 46°56' E 031°59'0 1.0
2017-Oct-15 23:30N 46°57' E 031°59'0 0.5
2017-Oct-15 23:01N 46°56' E 031°59'0 0.2
2017-Oct-15 22:30N 46°56' E 031°59'0 0.1
2017-Oct-15 22:01N 46°56' E 031°59'0 0.2
2017-Oct-15 21:31N 46°57' E 031°59'0 0.4
2017-Oct-15 21:01N 46°57' E 031°59'0 0.0
2017-Oct-15 20:31N 46°57' E 031°59'0 0.0
2017-Oct-15 20:00N 46°57' E 031°59'0 0.0
2017-Oct-15 19:31N 46°57' E 031°59'0 0.0
2017-Oct-15 19:00N 46°57' E 031°59'0 0.0
2017-Oct-15 18:30N 46°57' E 031°59'0 0.0
2017-Oct-15 18:01N 46°57' E 031°59'0 0.0
2017-Oct-15 17:30N 46°57' E 031°59'0 0.0
2017-Oct-15 17:01N 46°57' E 031°59'0 0.0
2017-Oct-15 16:30N 46°57' E 031°59'0 0.0
2017-Oct-15 16:01N 46°57' E 031°59'0 0.0
2017-Oct-15 15:31N 46°57' E 031°59'0 0.0
2017-Oct-15 15:01N 46°57' E 031°59'0 0.0
2017-Oct-15 14:00N 46°57' E 031°59'0 0.0
2017-Oct-15 13:31N 46°57' E 031°59'0 0.0
2017-Oct-15 13:00N 46°57' E 031°59'0 0.0
2017-Oct-15 12:30N 46°57' E 031°59'0 0.0
2017-Oct-15 12:01N 46°57' E 031°59'0 0.0
2017-Oct-15 11:30N 46°57' E 031°59'0 0.0
2017-Oct-15 11:00N 46°57' E 031°59'0 0.0
2017-Oct-15 10:30N 46°57' E 031°59'0 0.0
2017-Oct-15 10:00N 46°57' E 031°59'0 0.0
2017-Oct-15 09:31N 46°57' E 031°59'0 0.4
2017-Oct-15 09:01N 46°56' E 031°59'0 0.1
2017-Oct-15 08:31N 46°56' E 031°59'0 0.1
2017-Oct-15 08:00N 46°56' E 031°59'0 0.3
2017-Oct-15 07:31N 46°56' E 031°59'0 0.7
2017-Oct-15 07:00N 46°57' E 031°59'0 0.0
2017-Oct-15 06:31N 46°57' E 031°59'0 0.5
2017-Oct-15 06:01N 46°57' E 031°59'0 0.5
2017-Oct-15 05:31N 46°57' E 031°59'0 0.0
2017-Oct-15 05:00N 46°57' E 031°59'0 0.0
2017-Oct-15 04:31N 46°57' E 031°59'0 0.1
2017-Oct-15 04:01N 46°57' E 031°59'0 0.1
2017-Oct-15 03:30N 46°57' E 031°59'0 0.2
2017-Oct-15 03:00N 46°57' E 031°59'0 0.0
2017-Oct-15 02:31N 46°57' E 031°59'0 0.0
2017-Oct-15 02:01N 46°57' E 031°59'0 0.0
2017-Oct-15 01:30N 46°57' E 031°59'0 0.0
2017-Oct-15 01:00N 46°57' E 031°59'0 0.0
2017-Oct-15 00:31N 46°57' E 031°59'0 0.3
2017-Oct-15 00:01N 46°56' E 031°59'0 0.0
2017-Oct-14 23:31N 46°56' E 031°59'0 0.0
2017-Oct-14 23:01N 46°56' E 031°59'0 0.4
2017-Oct-14 22:31N 46°57' E 031°59'0 0.0
2017-Oct-14 22:01N 46°57' E 031°59'0 0.0
2017-Oct-14 21:30N 46°57' E 031°59'0 0.0
2017-Oct-14 21:01N 46°57' E 031°59'0 0.0
2017-Oct-14 20:30N 46°57' E 031°59'0 0.0
2017-Oct-14 20:01N 46°57' E 031°59'0 0.3
2017-Oct-14 19:31N 46°56' E 031°59'0 0.0
2017-Oct-14 19:01N 46°56' E 031°59'0 0.0
2017-Oct-14 18:31N 46°56' E 031°59'0 0.0
2017-Oct-14 18:01N 46°56' E 031°59'0 0.0
2017-Oct-14 17:31N 46°56' E 031°59'0 0.0
2017-Oct-14 17:01N 46°56' E 031°59'0 0.8
2017-Oct-14 16:30N 46°56' E 031°59'0 0.6
2017-Oct-14 16:00N 46°56' E 031°59'0 0.5
2017-Oct-14 15:30N 46°57' E 031°59'0 0.0
2017-Oct-14 15:01N 46°57' E 031°59'0 0.1
2017-Oct-14 14:31N 46°57' E 031°59'0 0.6
2017-Oct-14 14:00N 46°56' E 031°59'0 0.6
2017-Oct-14 13:31N 46°57' E 031°59'0 0.3
2017-Oct-14 13:00N 46°56' E 031°59'0 0.7
2017-Oct-14 12:31N 46°56' E 031°59'0 0.6
2017-Oct-14 12:01N 46°56' E 031°59'0 0.0
2017-Oct-14 11:30N 46°56' E 031°59'0 0.1
2017-Oct-14 11:01N 46°56' E 031°59'0 0.1
2017-Oct-14 10:30N 46°56' E 031°59'0 0.4
2017-Oct-14 10:00N 46°57' E 031°59'0 0.0
2017-Oct-14 09:30N 46°57' E 031°59'0 0.0
2017-Oct-14 09:01N 46°57' E 031°59'0 0.0
2017-Oct-14 08:31N 46°57' E 031°59'0 0.0
2017-Oct-14 08:00N 46°57' E 031°59'0 0.0
2017-Oct-14 07:31N 46°57' E 031°59'0 0.0
2017-Oct-14 07:01N 46°57' E 031°59'0 0.0
2017-Oct-14 06:30N 46°57' E 031°59'0 0.0
2017-Oct-14 06:00N 46°57' E 031°59'0 0.0
2017-Oct-14 05:30N 46°57' E 031°59'0 0.6
2017-Oct-14 05:01N 46°56' E 031°59'0 0.4
2017-Oct-14 04:31N 46°56' E 031°59'0 0.4
2017-Oct-14 04:01N 46°56' E 031°59'0 0.5
2017-Oct-14 03:31N 46°57' E 031°59'0 0.0
2017-Oct-14 03:01N 46°57' E 031°59'0 0.5
2017-Oct-14 02:30N 46°56' E 031°59'0 0.5
2017-Oct-14 02:01N 46°56' E 031°59'0 0.0
2017-Oct-14 01:30N 46°56' E 031°59'0 0.0
2017-Oct-14 01:00N 46°56' E 031°59'0 0.1
2017-Oct-14 00:31N 46°56' E 031°59'0 0.0
2017-Oct-14 00:00N 46°56' E 031°59'0 0.0
2017-Oct-13 23:31N 46°56' E 031°59'0 0.9
2017-Oct-13 23:01N 46°57' E 031°59'0 0.0
2017-Oct-13 22:31N 46°57' E 031°59'0 0.0
2017-Oct-13 22:01N 46°57' E 031°59'0 0.0
2017-Oct-13 21:31N 46°57' E 031°59'0 0.0
2017-Oct-13 21:00N 46°57' E 031°59'0 0.0
2017-Oct-13 20:31N 46°57' E 031°59'0 0.0
2017-Oct-13 20:00N 46°57' E 031°59'0 0.0
2017-Oct-13 19:31N 46°57' E 031°59'0 0.0
2017-Oct-13 19:00N 46°57' E 031°59'0 0.0
2017-Oct-13 18:31N 46°57' E 031°59'0 0.4
2017-Oct-13 18:00N 46°57' E 031°59'0 0.7
2017-Oct-13 17:30N 46°56' E 031°59'0 0.5
2017-Oct-13 17:01N 46°56' E 031°59'0 0.8
2017-Oct-13 16:30N 46°56' E 031°59'0 0.7
2017-Oct-13 16:00N 46°56' E 031°59'0 0.0
2017-Oct-13 15:30N 46°56' E 031°59'0 0.7
2017-Oct-13 15:00N 46°56' E 031°59'0 0.7
2017-Oct-13 14:31N 46°57' E 031°59'1 1.6
2017-Oct-13 14:00N 46°56' E 031°59'0 0.1
2017-Oct-13 13:31N 46°56' E 031°59'0 0.8
2017-Oct-13 13:00N 46°56' E 031°59'0 0.1
2017-Oct-13 12:31N 46°57' E 031°59'0 0.1
2017-Oct-13 12:00N 46°57' E 031°59'0 0.3
2017-Oct-13 11:31N 46°56' E 031°59'0 0.7
2017-Oct-13 11:01N 46°56' E 031°59'0 0.9
2017-Oct-13 10:30N 46°57' E 031°59'1 1.1
2017-Oct-13 10:01N 46°56' E 031°59'0 0.7
2017-Oct-13 09:30N 46°57' E 031°59'0 0.1
2017-Oct-13 09:01N 46°57' E 031°59'0 0.0
2017-Oct-13 08:31N 46°57' E 031°59'0 0.4
2017-Oct-13 08:00N 46°57' E 031°59'0 0.0
2017-Oct-13 07:30N 46°57' E 031°59'0 0.0
2017-Oct-13 07:01N 46°57' E 031°59'0 0.9
2017-Oct-13 06:30N 46°56' E 031°59'0 0.8
2017-Oct-13 06:00N 46°57' E 031°59'0 0.0
2017-Oct-13 05:31N 46°57' E 031°59'0 0.0
2017-Oct-13 05:00N 46°57' E 031°59'0 0.0
2017-Oct-13 04:31N 46°57' E 031°59'0 0.0
2017-Oct-13 04:01N 46°57' E 031°59'0 0.0
2017-Oct-13 03:31N 46°57' E 031°59'0 0.0
2017-Oct-13 03:01N 46°57' E 031°59'0 0.0
2017-Oct-13 02:31N 46°57' E 031°59'0 0.0
2017-Oct-13 02:01N 46°57' E 031°59'0 0.0
2017-Oct-13 01:30N 46°57' E 031°59'0 0.1
2017-Oct-13 01:00N 46°57' E 031°59'0 0.3
2017-Oct-13 00:31N 46°56' E 031°59'0 0.3
2017-Oct-13 00:01N 46°57' E 031°59'0 0.0
2017-Oct-12 23:30N 46°57' E 031°59'0 0.0
2017-Oct-12 23:01N 46°57' E 031°59'0 0.4
2017-Oct-12 22:31N 46°57' E 031°59'0 0.3
2017-Oct-12 22:01N 46°56' E 031°59'0 0.4
2017-Oct-12 21:31N 46°56' E 031°59'0 0.7
2017-Oct-12 21:00N 46°57' E 031°59'0 0.3
2017-Oct-12 20:30N 46°56' E 031°59'1 2.2
2017-Oct-12 20:01N 46°56' E 031°58'1 2.8
2017-Oct-12 19:31N 46°56' E 031°56'1 2.8
2017-Oct-12 19:01N 46°57' E 031°55'2 3.0
2017-Oct-12 18:31N 46°58' E 031°57'2 3.1
2017-Oct-12 18:01N 46°59' E 031°58'1 2.4
2017-Oct-12 17:30N 47°00' E 031°58'1 2.8
2017-Oct-12 17:00N 47°00' E 031°56'  

Dump ship's entire track history